createdAt,value
2018-10-06T00:00:22.462Z,98046.95
2018-10-06T00:02:51.273Z,98041.38
2018-10-06T00:05:21.262Z,98040.55
2018-10-06T00:07:50.689Z,98036.36
2018-10-06T00:10:19.890Z,98038.73
2018-10-06T00:12:49.010Z,98040.59
2018-10-06T00:15:18.546Z,98036.56
2018-10-06T00:17:47.690Z,98035.00
2018-10-06T00:20:16.829Z,98041.86
2018-10-06T00:22:45.971Z,98042.17
2018-10-06T00:25:15.094Z,98034.89
2018-10-06T00:27:44.782Z,98034.95
2018-10-06T00:30:13.982Z,98027.60
2018-10-06T00:32:43.152Z,98024.02
2018-10-06T00:35:12.289Z,98022.80
2018-10-06T00:37:41.818Z,98018.56
2018-10-06T00:40:11.555Z,98016.11
2018-10-06T00:42:41.227Z,98013.73
2018-10-06T00:45:10.870Z,98016.52
2018-10-06T00:47:40.114Z,98011.09
2018-10-06T00:50:09.234Z,98011.06
2018-10-06T00:52:39.178Z,98012.44
2018-10-06T00:55:15.327Z,98010.78
2018-10-06T00:57:44.434Z,98011.11
2018-10-06T01:00:13.574Z,98006.91
2018-10-06T01:02:42.938Z,98008.23
2018-10-06T01:05:13.007Z,98002.95
2018-10-06T01:07:42.165Z,98000.90
2018-10-06T01:10:12.214Z,97998.37
2018-10-06T01:12:41.461Z,97997.28
2018-10-06T01:15:10.648Z,97992.70
2018-10-06T01:17:39.956Z,97990.53
2018-10-06T01:20:09.366Z,97984.20
2018-10-06T01:22:38.968Z,97985.98
2018-10-06T01:25:08.454Z,97982.92
2018-10-06T01:27:37.778Z,97984.00
2018-10-06T01:30:07.269Z,97984.83
2018-10-06T01:32:36.417Z,97985.21
2018-10-06T01:35:05.704Z,97983.76
2018-10-06T01:37:35.133Z,97990.70
2018-10-06T01:40:04.282Z,97987.48
2018-10-06T01:42:33.429Z,97985.14
2018-10-06T01:45:02.993Z,97979.22
2018-10-06T01:47:33.183Z,97984.28
2018-10-06T01:50:02.457Z,97979.77
2018-10-06T01:52:31.502Z,97976.98
2018-10-06T01:55:00.630Z,97976.47
2018-10-06T01:57:29.793Z,97975.34
2018-10-06T02:00:01.171Z,97976.42
2018-10-06T02:02:30.473Z,97980.04
2018-10-06T02:04:59.773Z,97991.38
2018-10-06T02:07:29.065Z,97990.45
2018-10-06T02:09:58.327Z,97983.97
2018-10-06T02:12:27.650Z,97988.13
2018-10-06T02:14:57.390Z,97979.22
2018-10-06T02:17:27.655Z,97977.09
2018-10-06T02:19:57.041Z,97975.48
2018-10-06T02:22:26.275Z,97978.11
2018-10-06T02:24:56.080Z,97976.43
2018-10-06T02:27:25.945Z,97977.45
2018-10-06T02:29:55.175Z,97970.86
2018-10-06T02:32:24.515Z,97972.81
2018-10-06T02:34:53.761Z,97975.98
2018-10-06T02:37:23.217Z,97981.38
2018-10-06T02:39:52.449Z,97977.16
2018-10-06T02:42:22.069Z,97974.19
2018-10-06T02:44:51.334Z,97976.52
2018-10-06T02:47:20.635Z,97973.63
2018-10-06T02:49:51.274Z,97969.59
2018-10-06T02:52:20.537Z,97959.24
2018-10-06T02:54:49.730Z,97961.48
2018-10-06T02:57:18.960Z,97958.11
2018-10-06T02:59:48.134Z,97944.41
2018-10-06T03:02:17.342Z,97934.70
2018-10-06T03:04:46.513Z,97932.29
2018-10-06T03:07:15.790Z,97927.46
2018-10-06T03:09:45.427Z,97930.42
2018-10-06T03:12:14.917Z,97927.22
2018-10-06T03:14:44.235Z,97930.64
2018-10-06T03:17:13.182Z,97930.83
2018-10-06T03:19:42.863Z,97928.05
2018-10-06T03:22:12.495Z,97932.54
2018-10-06T03:24:41.677Z,97928.05
2018-10-06T03:27:11.133Z,97933.67
2018-10-06T03:29:40.267Z,97927.64
2018-10-06T03:32:09.383Z,97917.91
2018-10-06T03:34:38.494Z,97919.70
2018-10-06T03:37:07.611Z,97922.46
2018-10-06T03:39:36.793Z,97924.81
2018-10-06T03:42:06.295Z,97915.80
2018-10-06T03:44:35.386Z,97927.05
2018-10-06T03:47:04.586Z,97926.44
2018-10-06T03:49:33.669Z,97922.14
2018-10-06T03:52:02.767Z,97930.98
2018-10-06T03:54:32.601Z,97927.30
2018-10-06T03:57:01.702Z,97930.79
2018-10-06T03:59:30.786Z,97932.48
2018-10-06T04:01:59.890Z,97932.19
2018-10-06T04:04:29.014Z,97924.32
2018-10-06T04:06:58.122Z,97918.28
2018-10-06T04:09:27.226Z,97919.88
2018-10-06T04:11:57.171Z,97922.33
2018-10-06T04:14:26.537Z,97921.91
2018-10-06T04:16:55.721Z,97918.81
2018-10-06T04:19:24.642Z,97918.89
2018-10-06T04:21:53.796Z,97922.00
2018-10-06T04:24:22.909Z,97912.37
2018-10-06T04:26:51.993Z,97915.05
2018-10-06T04:29:21.118Z,97914.56
2018-10-06T04:31:51.544Z,97907.63
2018-10-06T04:34:20.658Z,97900.41
2018-10-06T04:36:49.756Z,97899.84
2018-10-06T04:39:18.869Z,97893.66
2018-10-06T04:41:48.025Z,97901.08
2018-10-06T04:44:17.150Z,97890.16
2018-10-06T04:46:46.890Z,97885.34
2018-10-06T04:49:16.002Z,97888.30
2018-10-06T04:51:45.166Z,97888.63
2018-10-06T04:54:14.831Z,97885.47
2018-10-06T04:56:44.058Z,97889.66
2018-10-06T04:59:13.318Z,97885.81
2018-10-06T05:01:43.134Z,97883.27
2018-10-06T05:04:12.814Z,97889.53
2018-10-06T05:06:41.897Z,97891.42
2018-10-06T05:09:11.006Z,97889.70
2018-10-06T05:11:40.114Z,97895.88
2018-10-06T05:14:09.230Z,97897.05
2018-10-06T05:16:38.367Z,97892.89
2018-10-06T05:19:07.623Z,97894.68
2018-10-06T05:21:36.811Z,97900.05
2018-10-06T05:24:06.044Z,97902.17
2018-10-06T05:26:34.775Z,97908.23
2018-10-06T05:29:04.119Z,97904.02
2018-10-06T05:31:33.331Z,97895.95
2018-10-06T05:34:02.497Z,97886.90
2018-10-06T05:36:31.587Z,97887.53
2018-10-06T05:39:01.232Z,97884.42
2018-10-06T05:41:30.332Z,97881.17
2018-10-06T05:43:59.475Z,97887.36
2018-10-06T05:46:28.629Z,97895.52
2018-10-06T05:48:58.158Z,97909.16
2018-10-06T05:51:27.288Z,97902.55
2018-10-06T05:53:56.506Z,97899.77
2018-10-06T05:56:25.638Z,97896.66
2018-10-06T05:58:55.605Z,97890.97
2018-10-06T06:01:24.711Z,97893.84
2018-10-06T06:03:53.834Z,97899.76
2018-10-06T06:06:22.934Z,97902.22
2018-10-06T06:08:52.035Z,97899.03
2018-10-06T06:11:21.491Z,97895.22
2018-10-06T06:13:50.658Z,97898.78
2018-10-06T06:16:20.203Z,97907.01
2018-10-06T06:18:50.079Z,97905.59
2018-10-06T06:21:19.643Z,97906.50
2018-10-06T06:23:48.829Z,97905.89
2018-10-06T06:26:17.911Z,97907.71
2018-10-06T06:28:47.725Z,97908.70
2018-10-06T06:31:16.891Z,97907.22
2018-10-06T06:33:46.070Z,97905.22
2018-10-06T06:36:15.228Z,97899.95
2018-10-06T06:38:44.638Z,97907.03
2018-10-06T06:41:15.165Z,97908.20
2018-10-06T06:43:44.299Z,97898.23
2018-10-06T06:46:13.375Z,97903.72
2018-10-06T06:48:42.508Z,97894.52
2018-10-06T06:51:11.655Z,97897.78
2018-10-06T06:53:40.794Z,97895.53
2018-10-06T06:56:10.386Z,97895.54
2018-10-06T06:58:40.162Z,97901.03
2018-10-06T07:01:09.471Z,97907.90
2018-10-06T07:03:38.639Z,97905.15
2018-10-06T07:06:07.776Z,97903.91
2018-10-06T07:08:36.929Z,97903.73
2018-10-06T07:11:06.039Z,97905.86
2018-10-06T07:13:35.206Z,97907.04
2018-10-06T07:16:04.976Z,97901.83
2018-10-06T07:18:35.692Z,97897.48
2018-10-06T07:21:04.999Z,97902.26
2018-10-06T07:23:34.530Z,97903.94
2018-10-06T07:26:03.803Z,97892.08
2018-10-06T07:28:32.944Z,97891.39
2018-10-06T07:31:02.027Z,97893.83
2018-10-06T07:33:31.129Z,97898.42
2018-10-06T07:36:00.255Z,97900.10
2018-10-06T07:38:30.055Z,97896.76
2018-10-06T07:40:59.154Z,97898.36
2018-10-06T07:43:28.337Z,97904.22
2018-10-06T07:45:57.466Z,97895.46
2018-10-06T07:48:26.566Z,97897.80
2018-10-06T07:50:56.567Z,97900.36
2018-10-06T07:53:25.712Z,97897.45
2018-10-06T07:55:54.831Z,97891.42
2018-10-06T07:58:24.094Z,97887.73
2018-10-06T08:00:53.225Z,97896.25
2018-10-06T08:03:22.377Z,97891.03
2018-10-06T08:05:51.768Z,97882.89
2018-10-06T08:08:21.758Z,97879.28
2018-10-06T08:10:51.013Z,97877.30
2018-10-06T08:13:20.748Z,97869.77
2018-10-06T08:15:49.979Z,97869.86
2018-10-06T08:18:18.865Z,97867.78
2018-10-06T08:20:48.109Z,97858.70
2018-10-06T08:23:18.002Z,97862.72
2018-10-06T08:25:47.897Z,97853.22
2018-10-06T08:28:17.785Z,97851.04
2018-10-06T08:30:47.759Z,97848.39
2018-10-06T08:33:17.155Z,97841.56
2018-10-06T08:35:46.685Z,97840.89
2018-10-06T08:38:16.131Z,97840.95
2018-10-06T08:40:45.098Z,97831.71
2018-10-06T08:43:14.841Z,97835.13
2018-10-06T08:45:43.951Z,97832.61
2018-10-06T08:48:13.342Z,97836.25
2018-10-06T08:50:42.858Z,97830.05
2018-10-06T08:53:12.098Z,97833.15
2018-10-06T08:55:42.344Z,97836.37
2018-10-06T08:58:11.700Z,97838.66
2018-10-06T09:00:40.458Z,97838.27
2018-10-06T09:03:10.052Z,97839.61
2018-10-06T09:05:40.446Z,97841.83
2018-10-06T09:08:09.730Z,97839.53
2018-10-06T09:10:38.948Z,97832.36
2018-10-06T09:13:08.234Z,97832.44
2018-10-06T09:15:37.557Z,97835.40
2018-10-06T09:18:07.346Z,97827.65
2018-10-06T09:20:36.446Z,97825.22
2018-10-06T09:23:05.658Z,97817.75
2018-10-06T09:25:34.862Z,97812.53
2018-10-06T09:28:04.029Z,97811.55
2018-10-06T09:30:33.143Z,97806.41
2018-10-06T09:33:02.430Z,97801.77
2018-10-06T09:35:31.565Z,97793.88
2018-10-06T09:38:00.694Z,97800.55
2018-10-06T09:40:29.838Z,97796.16
2018-10-06T09:42:58.998Z,97794.27
2018-10-06T09:45:28.273Z,97787.98
2018-10-06T09:47:58.393Z,97792.47
2018-10-06T09:50:27.442Z,97779.58
2018-10-06T09:52:56.255Z,97782.60
2018-10-06T09:55:25.867Z,97778.73
2018-10-06T09:57:55.045Z,97777.22
2018-10-06T10:00:31.043Z,97769.66
2018-10-06T10:03:05.456Z,97765.80
2018-10-06T10:05:39.893Z,97765.73
2018-10-06T10:08:09.647Z,97756.33
2018-10-06T10:10:41.161Z,97763.53
2018-10-06T10:13:10.606Z,97756.64
2018-10-06T10:15:41.322Z,97759.33
2018-10-06T10:18:11.036Z,97762.42
2018-10-06T10:20:40.136Z,97754.41
2018-10-06T10:23:09.972Z,97751.80
2018-10-06T10:25:39.462Z,97753.94
2018-10-06T10:28:08.566Z,97747.83
2018-10-06T10:30:37.866Z,97747.38
2018-10-06T10:33:07.578Z,97738.60
2018-10-06T10:35:37.653Z,97738.20
2018-10-06T10:38:07.691Z,97735.30
2018-10-06T10:40:38.402Z,97730.30
2018-10-06T10:43:08.342Z,97726.77
2018-10-06T10:45:37.094Z,97730.13
2018-10-06T10:48:06.861Z,97735.03
2018-10-06T10:50:36.077Z,97726.75
2018-10-06T10:53:05.401Z,97723.72
2018-10-06T10:55:34.655Z,97715.54
2018-10-06T10:58:05.258Z,97711.02
2018-10-06T11:00:34.513Z,97704.41
2018-10-06T11:03:03.575Z,97708.35
2018-10-06T11:05:33.237Z,97689.30
2018-10-06T11:08:02.375Z,97682.66
2018-10-06T11:10:31.597Z,97672.94
2018-10-06T11:13:00.712Z,97661.87
2018-10-06T11:15:30.679Z,97652.74
2018-10-06T11:18:00.534Z,97653.17
2018-10-06T11:20:31.025Z,97651.88
2018-10-06T11:23:01.639Z,97643.66
2018-10-06T11:25:30.754Z,97643.97
2018-10-06T11:27:59.878Z,97641.38
2018-10-06T11:30:29.198Z,97631.41
2018-10-06T11:32:58.271Z,97628.63
2018-10-06T11:35:27.427Z,97629.27
2018-10-06T11:37:56.611Z,97619.67
2018-10-06T11:40:25.656Z,97617.60
2018-10-06T11:42:54.754Z,97614.05
2018-10-06T11:45:24.110Z,97612.08
2018-10-06T11:47:53.214Z,97606.34
2018-10-06T11:50:22.867Z,97605.25
2018-10-06T11:52:51.943Z,97594.86
2018-10-06T11:55:21.062Z,97589.45
2018-10-06T11:57:50.371Z,97587.47
2018-10-06T12:00:19.598Z,97588.63
2018-10-06T12:02:48.598Z,97593.25
2018-10-06T12:05:17.767Z,97592.29
2018-10-06T12:07:46.862Z,97588.89
2018-10-06T12:10:16.334Z,97587.38
2018-10-06T12:12:45.482Z,97572.70
2018-10-06T12:15:16.235Z,97571.77
2018-10-06T12:17:45.392Z,97569.07
2018-10-06T12:20:14.507Z,97562.97
2018-10-06T12:22:43.653Z,97558.02
2018-10-06T12:25:13.370Z,97557.80
2018-10-06T12:27:43.206Z,97554.82
2018-10-06T12:30:11.951Z,97555.61
2018-10-06T12:32:41.318Z,97556.28
2018-10-06T12:35:10.498Z,97545.63
2018-10-06T12:37:39.543Z,97537.48
2018-10-06T12:40:08.662Z,97537.56
2018-10-06T12:42:37.837Z,97536.28
2018-10-06T12:45:07.344Z,97530.31
2018-10-06T12:47:36.433Z,97525.41
2018-10-06T12:50:05.990Z,97523.56
2018-10-06T12:52:35.117Z,97519.69
2018-10-06T12:55:07.493Z,97511.66
2018-10-06T12:57:36.586Z,97515.06
2018-10-06T13:00:06.193Z,97511.16
2018-10-06T13:02:35.841Z,97513.98
2018-10-06T13:05:04.975Z,97510.75
2018-10-06T13:07:34.092Z,97504.58
2018-10-06T13:10:03.307Z,97502.98
2018-10-06T13:12:32.456Z,97498.48
2018-10-06T13:15:01.594Z,97497.33
2018-10-06T13:17:31.310Z,97497.09
2018-10-06T13:20:00.968Z,97497.67
2018-10-06T13:22:30.056Z,97487.34
2018-10-06T13:24:59.171Z,97486.39
2018-10-06T13:27:28.266Z,97491.06
2018-10-06T13:29:57.398Z,97481.59
2018-10-06T13:32:26.675Z,97485.13
2018-10-06T13:34:56.314Z,97481.35
2018-10-06T13:37:25.522Z,97485.19
2018-10-06T13:39:54.790Z,97483.97
2018-10-06T13:42:23.902Z,97478.50
2018-10-06T13:44:53.027Z,97482.17
2018-10-06T13:47:22.118Z,97481.10
2018-10-06T13:49:51.218Z,97472.06
2018-10-06T13:52:20.313Z,97476.86
2018-10-06T13:54:49.560Z,97483.07
2018-10-06T13:57:19.090Z,97476.64
2018-10-06T13:59:49.762Z,97474.18
2018-10-06T14:02:18.838Z,97470.29
2018-10-06T14:04:47.925Z,97467.41
2018-10-06T14:07:17.842Z,97469.05
2018-10-06T14:09:46.942Z,97470.23
2018-10-06T14:12:16.199Z,97467.44
2018-10-06T14:14:46.043Z,97468.73
2018-10-06T14:17:15.646Z,97466.30
2018-10-06T14:19:45.030Z,97459.03
2018-10-06T14:22:13.811Z,97456.20
2018-10-06T14:24:43.001Z,97463.18
2018-10-06T14:27:12.103Z,97455.28
2018-10-06T14:29:41.656Z,97453.68
2018-10-06T14:32:10.866Z,97454.50
2018-10-06T14:34:40.538Z,97449.25
2018-10-06T14:37:10.700Z,97447.80
2018-10-06T14:39:39.929Z,97455.89
2018-10-06T14:42:09.054Z,97448.55
2018-10-06T14:44:38.318Z,97444.42
2018-10-06T14:47:07.585Z,97445.56
2018-10-06T14:49:36.615Z,97441.41
2018-10-06T14:52:05.966Z,97436.25
2018-10-06T14:54:35.693Z,97435.13
2018-10-06T14:57:05.137Z,97433.83
2018-10-06T14:59:35.546Z,97439.23
2018-10-06T15:02:04.955Z,97429.88
2018-10-06T15:04:34.422Z,97430.80
2018-10-06T15:07:03.566Z,97428.52
2018-10-06T15:09:32.908Z,97430.06
2018-10-06T15:12:02.499Z,97429.15
2018-10-06T15:14:31.578Z,97428.13
2018-10-06T15:17:01.579Z,97426.92
2018-10-06T15:19:30.674Z,97416.80
2018-10-06T15:21:59.864Z,97421.09
2018-10-06T15:24:30.478Z,97410.77
2018-10-06T15:26:59.794Z,97412.90
2018-10-06T15:29:28.978Z,97408.99
2018-10-06T15:31:59.914Z,97403.28
2018-10-06T15:34:28.784Z,97411.50
2018-10-06T15:36:58.490Z,97411.73
2018-10-06T15:39:28.837Z,97411.39
2018-10-06T15:41:58.278Z,97411.07
2018-10-06T15:44:28.254Z,97416.77
2018-10-06T15:46:57.767Z,97414.70
2018-10-06T15:49:27.698Z,97420.61
2018-10-06T15:51:56.610Z,97412.39
2018-10-06T15:54:25.791Z,97411.66
2018-10-06T15:56:55.290Z,97410.19
2018-10-06T15:59:24.861Z,97404.81
2018-10-06T16:01:53.566Z,97399.64
2018-10-06T16:04:24.062Z,97405.64
2018-10-06T16:06:53.507Z,97401.52
2018-10-06T16:09:22.667Z,97400.72
2018-10-06T16:11:51.817Z,97403.17
2018-10-06T16:14:21.363Z,97416.02
2018-10-06T16:16:50.495Z,97412.71
2018-10-06T16:19:19.594Z,97415.41
2018-10-06T16:21:48.683Z,97415.41
2018-10-06T16:24:17.794Z,97415.56
2018-10-06T16:26:47.696Z,97414.91
2018-10-06T16:29:17.082Z,97415.02
2018-10-06T16:31:46.734Z,97411.32
2018-10-06T16:34:18.299Z,97408.92
2018-10-06T16:36:48.144Z,97409.29
2018-10-06T16:39:19.779Z,97408.07
2018-10-06T16:41:48.886Z,97412.81
2018-10-06T16:44:17.988Z,97418.08
2018-10-06T16:46:47.874Z,97408.63
2018-10-06T16:49:17.922Z,97416.41
2018-10-06T16:51:48.148Z,97415.69
2018-10-06T16:54:17.401Z,97419.55
2018-10-06T16:56:46.218Z,97419.03
2018-10-06T16:59:15.782Z,97416.73
2018-10-06T17:01:47.596Z,97421.15
2018-10-06T17:04:18.603Z,97418.08
2018-10-06T17:06:48.010Z,97421.67
2018-10-06T17:09:21.737Z,97424.25
2018-10-06T17:11:51.939Z,97423.00
2018-10-06T17:14:23.483Z,97416.27
2018-10-06T17:16:52.583Z,97419.11
2018-10-06T17:19:22.482Z,97416.52
2018-10-06T17:21:51.646Z,97420.89
2018-10-06T17:24:21.553Z,97419.86
2018-10-06T17:26:50.600Z,97418.02
2018-10-06T17:29:19.946Z,97420.59
2018-10-06T17:31:52.286Z,97410.56
2018-10-06T17:34:21.450Z,97412.06
2018-10-06T17:36:51.086Z,97407.13
2018-10-06T17:39:20.290Z,97411.76
2018-10-06T17:41:50.086Z,97409.39
2018-10-06T17:44:19.267Z,97409.69
2018-10-06T17:46:49.886Z,97413.81
2018-10-06T17:49:18.846Z,97418.42
2018-10-06T17:51:48.018Z,97414.79
2018-10-06T17:54:17.774Z,97415.05
2018-10-06T17:56:47.113Z,97413.72
2018-10-06T17:59:16.220Z,97414.21
2018-10-06T18:01:45.616Z,97418.79
2018-10-06T18:04:15.410Z,97416.97
2018-10-06T18:06:44.911Z,97420.02
2018-10-06T18:09:21.082Z,97421.02
2018-10-06T18:11:51.490Z,97422.44
2018-10-06T18:14:20.899Z,97423.54
2018-10-06T18:16:50.452Z,97424.72
2018-10-06T18:19:19.583Z,97427.59
2018-10-06T18:21:48.691Z,97430.00
2018-10-06T18:24:17.805Z,97428.09
2018-10-06T18:26:49.905Z,97422.90
2018-10-06T18:29:19.515Z,97428.32
2018-10-06T18:31:48.840Z,97423.84
2018-10-06T18:34:18.363Z,97428.69
2018-10-06T18:36:47.715Z,97427.17
2018-10-06T18:39:16.863Z,97427.46
2018-10-06T18:41:46.166Z,97434.17
2018-10-06T18:44:15.453Z,97437.28
2018-10-06T18:46:46.231Z,97435.77
2018-10-06T18:49:15.487Z,97435.50
2018-10-06T18:51:44.713Z,97437.54
2018-10-06T18:54:14.451Z,97436.24
2018-10-06T18:56:43.702Z,97437.58
2018-10-06T18:59:13.399Z,97440.91
2018-10-06T19:01:42.897Z,97441.39
2018-10-06T19:04:12.552Z,97439.56
2018-10-06T19:06:41.694Z,97434.12
2018-10-06T19:09:11.061Z,97437.33
2018-10-06T19:11:40.510Z,97442.77
2018-10-06T19:14:12.106Z,97445.61
2018-10-06T19:16:41.337Z,97443.80
2018-10-06T19:19:11.107Z,97447.91
2018-10-06T19:21:40.394Z,97451.41
2018-10-06T19:24:10.071Z,97452.21
2018-10-06T19:26:39.411Z,97454.67
2018-10-06T19:29:09.134Z,97457.76
2018-10-06T19:31:38.999Z,97461.33
2018-10-06T19:34:08.208Z,97456.88
2018-10-06T19:36:37.466Z,97464.20
2018-10-06T19:39:08.125Z,97453.89
2018-10-06T19:41:38.191Z,97463.59
2018-10-06T19:44:07.443Z,97459.45
2018-10-06T19:46:37.050Z,97463.82
2018-10-06T19:49:06.396Z,97466.07
2018-10-06T19:51:35.949Z,97466.36
2018-10-06T19:54:05.667Z,97469.06
2018-10-06T19:56:34.799Z,97467.90
2018-10-06T19:59:03.892Z,97472.98
2018-10-06T20:01:33.040Z,97479.92
2018-10-06T20:04:02.203Z,97475.71
2018-10-06T20:06:31.482Z,97475.91
2018-10-06T20:09:00.691Z,97476.80
2018-10-06T20:11:29.695Z,97480.36
2018-10-06T20:14:00.926Z,97478.47
2018-10-06T20:16:30.086Z,97485.92
2018-10-06T20:18:59.230Z,97489.02
2018-10-06T20:21:29.750Z,97487.47
2018-10-06T20:23:58.982Z,97483.77
2018-10-06T20:26:28.195Z,97491.64
2018-10-06T20:28:59.142Z,97490.31
2018-10-06T20:31:29.536Z,97490.76
2018-10-06T20:33:58.672Z,97501.44
2018-10-06T20:36:27.762Z,97500.55
2018-10-06T20:38:57.010Z,97500.23
2018-10-06T20:41:26.167Z,97506.83
2018-10-06T20:43:55.298Z,97510.69
2018-10-06T20:46:25.004Z,97511.75
2018-10-06T20:48:54.077Z,97517.22
2018-10-06T20:51:23.156Z,97514.88
2018-10-06T20:53:52.270Z,97511.42
2018-10-06T20:56:21.403Z,97506.94
2018-10-06T20:58:50.500Z,97506.82
2018-10-06T21:01:19.588Z,97509.75
2018-10-06T21:03:49.143Z,97510.78
2018-10-06T21:06:18.246Z,97508.20
2018-10-06T21:08:47.345Z,97502.27
2018-10-06T21:11:16.507Z,97505.81
2018-10-06T21:13:45.610Z,97506.83
2018-10-06T21:16:14.698Z,97501.91
2018-10-06T21:18:43.972Z,97503.50
2018-10-06T21:21:13.085Z,97503.48
2018-10-06T21:23:42.178Z,97505.75
2018-10-06T21:26:11.315Z,97507.95
2018-10-06T21:28:40.453Z,97507.84
2018-10-06T21:31:09.613Z,97509.21
2018-10-06T21:33:38.634Z,97504.73
2018-10-06T21:36:07.903Z,97505.34
2018-10-06T21:38:37.024Z,97502.80
2018-10-06T21:41:06.227Z,97505.02
2018-10-06T21:43:35.366Z,97496.56
2018-10-06T21:46:04.531Z,97499.06
2018-10-06T21:48:33.931Z,97499.16
2018-10-06T21:51:03.114Z,97491.81
2018-10-06T21:53:32.209Z,97494.55
2018-10-06T21:56:01.484Z,97497.58
2018-10-06T21:58:31.166Z,97498.35
2018-10-06T22:01:05.680Z,97498.72
2018-10-06T22:03:35.323Z,97499.52
2018-10-06T22:06:05.575Z,97492.95
2018-10-06T22:08:35.478Z,97494.55
2018-10-06T22:11:04.672Z,97500.45
2018-10-06T22:13:33.787Z,97495.30
2018-10-06T22:16:03.326Z,97490.62
2018-10-06T22:18:32.709Z,97489.03
2018-10-06T22:21:01.518Z,97494.16
2018-10-06T22:23:31.102Z,97485.67
2018-10-06T22:25:59.874Z,97489.92
2018-10-06T22:28:29.038Z,97487.38
2018-10-06T22:30:58.359Z,97480.02
2018-10-06T22:33:27.510Z,97486.27
2018-10-06T22:35:56.638Z,97488.74
2018-10-06T22:38:25.730Z,97485.23
2018-10-06T22:40:55.038Z,97484.45
2018-10-06T22:43:23.759Z,97478.27
2018-10-06T22:45:52.863Z,97482.29
2018-10-06T22:48:22.082Z,97485.83
2018-10-06T22:50:51.484Z,97483.25
2018-10-06T22:53:20.302Z,97481.06
2018-10-06T22:55:49.434Z,97479.94
2018-10-06T22:58:18.542Z,97478.00
2018-10-06T23:00:47.722Z,97481.69
2018-10-06T23:03:17.054Z,97480.62
2018-10-06T23:05:46.070Z,97477.67
2018-10-06T23:08:15.221Z,97478.77
2018-10-06T23:10:45.338Z,97476.13
2018-10-06T23:13:14.458Z,97474.34
2018-10-06T23:15:47.722Z,97480.97
2018-10-06T23:18:16.836Z,97473.94
2018-10-06T23:20:46.935Z,97467.52
2018-10-06T23:23:16.046Z,97469.68
2018-10-06T23:25:45.144Z,97468.20
2018-10-06T23:28:14.249Z,97472.03
2018-10-06T23:30:43.355Z,97470.19
2018-10-06T23:33:12.534Z,97474.32
2018-10-06T23:35:41.654Z,97465.08
2018-10-06T23:38:10.817Z,97465.08
2018-10-06T23:40:40.745Z,97472.55
2018-10-06T23:43:10.013Z,97474.76
2018-10-06T23:45:38.881Z,97478.22
2018-10-06T23:48:08.582Z,97477.28
2018-10-06T23:50:37.688Z,97480.03
2018-10-06T23:53:06.810Z,97475.83
2018-10-06T23:55:35.906Z,97482.97
2018-10-06T23:58:05.003Z,97479.27
